Time;durP1;ratioP1;P1;durP2;ratioP2;P2;SDS_P1;SDS_P2;PMS_P1;PMS_P2;Temp;Humidity;BMP_temperature;BMP_pressure;BME280_temperature;BME280_humidity;BME280_pressure;Samples;Min_cycle;Max_cycle;Signal;HPM_P1;HPM_P2
2024/01/31 00:01:23;;;;;;;2.08;0.75;;;;;;;;;;5103521;28;41302;-68
2024/01/31 00:03:51;;;;;;;2.60;0.80;;;;;;;;;;5108360;27;41623;-69
2024/01/31 00:06:19;;;;;;;8.15;1.10;;;;;;;;;;5109627;27;40837;-67
2024/01/31 00:08:48;;;;;;;5.03;0.73;;;;;;;;;;5109942;27;41594;-67
2024/01/31 00:11:16;;;;;;;4.60;0.80;;;;;;;;;;5108825;27;41450;-67
2024/01/31 00:13:44;;;;;;;3.25;0.80;;;;;;;;;;5103969;27;40209;-70
2024/01/31 00:16:13;;;;;;;2.38;0.70;;;;;;;;;;5109711;27;42139;-69
2024/01/31 00:18:41;;;;;;;8.10;0.50;;;;;;;;;;5108914;27;40111;-67
2024/01/31 00:21:10;;;;;;;1.38;0.63;;;;;;;;;;5110111;27;41283;-67
2024/01/31 00:23:37;;;;;;;3.22;0.60;;;;;;;;;;5110070;27;42707;-67
2024/01/31 00:26:07;;;;;;;2.20;0.65;;;;;;;;;;5109201;27;40331;-69
2024/01/31 00:28:35;;;;;;;2.35;0.57;;;;;;;;;;5109996;27;42645;-68
2024/01/31 00:31:03;;;;;;;1.85;0.60;;;;;;;;;;5100723;27;41897;-69
2024/01/31 00:33:31;;;;;;;1.35;0.45;;;;;;;;;;5100101;27;39936;-69
2024/01/31 00:35:59;;;;;;;1.58;0.70;;;;;;;;;;5104580;27;41276;-69
2024/01/31 00:38:27;;;;;;;1.65;0.50;;;;;;;;;;5098000;28;42328;-69
2024/01/31 00:40:55;;;;;;;1.20;0.50;;;;;;;;;;5101014;27;41558;-68
2024/01/31 00:43:26;;;;;;;3.08;0.88;;;;;;;;;;5098166;28;43134;-68
2024/01/31 00:45:54;;;;;;;1.08;0.45;;;;;;;;;;5108252;27;41315;-69
2024/01/31 00:48:28;;;;;;;2.83;0.50;;;;;;;;;;5109540;27;42240;-68
2024/01/31 00:50:56;;;;;;;2.58;0.73;;;;;;;;;;5109089;27;42881;-68
2024/01/31 00:53:24;;;;;;;1.27;0.60;;;;;;;;;;5109032;27;40460;-69
2024/01/31 00:55:52;;;;;;;1.77;0.73;;;;;;;;;;5108841;27;42092;-69
2024/01/31 00:58:20;;;;;;;0.98;0.55;;;;;;;;;;5108257;28;41700;-68
2024/01/31 01:00:49;;;;;;;1.55;0.38;;;;;;;;;;5107988;27;40460;-68
2024/01/31 01:03:17;;;;;;;2.95;0.70;;;;;;;;;;5093599;27;42676;-68
2024/01/31 01:05:45;;;;;;;1.52;0.50;;;;;;;;;;5109102;27;41912;-68
2024/01/31 01:08:14;;;;;;;2.63;0.90;;;;;;;;;;5107632;27;42625;-68
2024/01/31 01:10:42;;;;;;;1.02;0.52;;;;;;;;;;5109289;27;42171;-68
2024/01/31 01:13:10;;;;;;;3.53;0.52;;;;;;;;;;5109389;27;40331;-67
2024/01/31 01:15:38;;;;;;;1.65;0.43;;;;;;;;;;5108538;27;41613;-68
2024/01/31 01:18:07;;;;;;;1.05;0.50;;;;;;;;;;5107959;27;42374;-67
2024/01/31 01:20:35;;;;;;;3.33;0.75;;;;;;;;;;5108145;27;41341;-68
2024/01/31 01:23:03;;;;;;;2.33;0.65;;;;;;;;;;5108991;27;41376;-68
2024/01/31 01:25:31;;;;;;;2.03;0.63;;;;;;;;;;5109320;27;40216;-68
2024/01/31 01:27:59;;;;;;;1.83;0.60;;;;;;;;;;5105104;27;40947;-68
2024/01/31 01:30:27;;;;;;;1.42;0.52;;;;;;;;;;5098029;28;41322;-68
2024/01/31 01:32:55;;;;;;;2.28;0.50;;;;;;;;;;5108322;27;40103;-68
2024/01/31 01:35:24;;;;;;;1.85;1.05;;;;;;;;;;5100859;27;40984;-68
2024/01/31 01:37:52;;;;;;;1.17;0.50;;;;;;;;;;5102004;28;42167;-68
2024/01/31 01:40:20;;;;;;;2.08;0.80;;;;;;;;;;5099210;27;40670;-68
2024/01/31 01:42:48;;;;;;;2.63;0.60;;;;;;;;;;5097898;27;41027;-68
2024/01/31 01:45:16;;;;;;;2.00;0.60;;;;;;;;;;5108336;27;33562;-68
2024/01/31 01:47:50;;;;;;;2.25;0.52;;;;;;;;;;5098070;27;41473;-68
2024/01/31 01:50:19;;;;;;;2.03;0.50;;;;;;;;;;5097865;28;41793;-68
2024/01/31 01:52:49;;;;;;;0.60;0.30;;;;;;;;;;5102716;27;39891;-68
2024/01/31 01:55:17;;;;;;;1.13;0.40;;;;;;;;;;5104096;27;41602;-68
2024/01/31 01:57:46;;;;;;;1.52;0.47;;;;;;;;;;5107078;27;42183;-68
2024/01/31 02:00:14;;;;;;;3.70;0.57;;;;;;;;;;5108086;27;40359;-68
2024/01/31 02:02:42;;;;;;;1.27;0.57;;;;;;;;;;5106776;27;42427;-68
2024/01/31 02:05:10;;;;;;;3.10;0.68;;;;;;;;;;5098922;27;42028;-68
2024/01/31 02:07:38;;;;;;;2.00;0.52;;;;;;;;;;5103191;28;41691;-68
2024/01/31 02:10:08;;;;;;;1.10;0.65;;;;;;;;;;5107651;27;43193;-68
2024/01/31 02:12:36;;;;;;;1.73;0.60;;;;;;;;;;5107812;27;41458;-68
2024/01/31 02:15:04;;;;;;;1.77;0.50;;;;;;;;;;5108678;27;42374;-68
2024/01/31 02:17:33;;;;;;;1.48;0.60;;;;;;;;;;5107195;27;41872;-68
2024/01/31 02:20:01;;;;;;;1.40;0.43;;;;;;;;;;5107264;27;42409;-68
2024/01/31 02:22:31;;;;;;;1.88;0.45;;;;;;;;;;5108521;27;42397;-68
2024/01/31 02:24:59;;;;;;;1.00;0.43;;;;;;;;;;5106947;27;42673;-68
2024/01/31 02:27:27;;;;;;;1.65;0.50;;;;;;;;;;5108515;27;40304;-68
2024/01/31 02:29:55;;;;;;;0.85;0.43;;;;;;;;;;5107570;27;42274;-68
2024/01/31 02:32:23;;;;;;;1.75;0.43;;;;;;;;;;5106551;27;40296;-68
2024/01/31 02:34:51;;;;;;;2.80;0.50;;;;;;;;;;5106065;27;42487;-68
2024/01/31 02:37:19;;;;;;;1.90;0.40;;;;;;;;;;5107880;27;42742;-68
2024/01/31 02:39:49;;;;;;;1.05;0.60;;;;;;;;;;5105314;27;40782;-68
2024/01/31 02:42:18;;;;;;;1.63;0.40;;;;;;;;;;5093750;28;42566;-68
2024/01/31 02:44:46;;;;;;;0.85;0.40;;;;;;;;;;5106491;27;41615;-68
2024/01/31 02:47:14;;;;;;;1.98;0.47;;;;;;;;;;5107650;27;40272;-68
2024/01/31 02:49:42;;;;;;;1.13;0.50;;;;;;;;;;5095554;27;42650;-68
2024/01/31 02:52:10;;;;;;;2.13;0.50;;;;;;;;;;5093238;28;41473;-68
2024/01/31 02:54:38;;;;;;;1.05;0.50;;;;;;;;;;5098637;27;42155;-68
2024/01/31 02:57:07;;;;;;;0.70;0.47;;;;;;;;;;5093943;27;42030;-68
2024/01/31 02:59:35;;;;;;;0.88;0.30;;;;;;;;;;5097418;27;39646;-68
2024/01/31 03:02:05;;;;;;;0.85;0.43;;;;;;;;;;5091187;27;41870;-68
2024/01/31 03:04:33;;;;;;;1.42;0.55;;;;;;;;;;5094893;27;41814;-68
2024/01/31 03:07:01;;;;;;;0.68;0.30;;;;;;;;;;5106512;27;41028;-68
2024/01/31 03:09:29;;;;;;;0.68;0.40;;;;;;;;;;5108049;27;41181;-68
2024/01/31 03:11:57;;;;;;;1.35;0.32;;;;;;;;;;5107569;27;42782;-68
2024/01/31 03:14:26;;;;;;;2.15;0.50;;;;;;;;;;5106017;27;41729;-68
2024/01/31 03:16:54;;;;;;;0.65;0.30;;;;;;;;;;5096396;27;41804;-68
2024/01/31 03:19:22;;;;;;;1.33;0.40;;;;;;;;;;5103572;27;40870;-68
2024/01/31 03:21:50;;;;;;;0.68;0.50;;;;;;;;;;5106515;27;42436;-68
2024/01/31 03:24:18;;;;;;;2.45;0.47;;;;;;;;;;5106909;27;43292;-68
2024/01/31 03:26:46;;;;;;;1.58;0.40;;;;;;;;;;5092749;28;40145;-68
2024/01/31 03:29:14;;;;;;;0.88;0.40;;;;;;;;;;5106288;27;42242;-68
2024/01/31 03:31:43;;;;;;;1.40;0.35;;;;;;;;;;5106120;27;42789;-68
2024/01/31 03:34:11;;;;;;;1.40;0.32;;;;;;;;;;5107043;27;41313;-68
2024/01/31 03:36:39;;;;;;;0.90;0.30;;;;;;;;;;5104713;27;42059;-68
2024/01/31 03:39:07;;;;;;;1.42;0.30;;;;;;;;;;5100321;27;39766;-68
2024/01/31 03:41:35;;;;;;;2.25;0.40;;;;;;;;;;5086088;28;41477;-68
2024/01/31 03:44:03;;;;;;;1.42;0.60;;;;;;;;;;5100327;28;41468;-68
2024/01/31 03:46:31;;;;;;;1.30;0.38;;;;;;;;;;5087426;28;40675;-68
2024/01/31 03:49:00;;;;;;;0.98;0.40;;;;;;;;;;5105800;27;41177;-68
2024/01/31 03:51:29;;;;;;;1.83;0.40;;;;;;;;;;5106521;27;41640;-68
2024/01/31 03:53:56;;;;;;;1.13;0.40;;;;;;;;;;5102718;27;39889;-68
2024/01/31 03:56:27;;;;;;;1.55;0.43;;;;;;;;;;5095852;28;42207;-68
2024/01/31 03:58:55;;;;;;;1.40;0.40;;;;;;;;;;5099891;27;42496;-68
2024/01/31 04:01:23;;;;;;;1.38;0.40;;;;;;;;;;5095816;28;43211;-68
2024/01/31 04:03:51;;;;;;;1.50;0.40;;;;;;;;;;5090833;28;42433;-68
2024/01/31 04:06:20;;;;;;;1.95;0.30;;;;;;;;;;5092155;27;40262;-68
2024/01/31 04:08:49;;;;;;;1.00;0.60;;;;;;;;;;5093822;27;42486;-67
2024/01/31 04:11:17;;;;;;;1.23;0.40;;;;;;;;;;5098310;27;41730;-68
2024/01/31 04:13:45;;;;;;;1.30;0.50;;;;;;;;;;5099311;28;39757;-67
2024/01/31 04:16:17;;;;;;;1.00;0.40;;;;;;;;;;5100845;27;41321;-68
2024/01/31 04:18:48;;;;;;;0.73;0.45;;;;;;;;;;5085843;28;38558;-68
2024/01/31 04:21:22;;;;;;;0.57;0.45;;;;;;;;;;5104942;27;42616;-68
2024/01/31 04:23:49;;;;;;;0.57;0.40;;;;;;;;;;5105935;27;41527;-68
2024/01/31 04:26:17;;;;;;;2.25;0.70;;;;;;;;;;5105246;27;39299;-68
2024/01/31 04:28:45;;;;;;;2.20;0.60;;;;;;;;;;5107763;27;42442;-67
2024/01/31 04:31:14;;;;;;;0.80;0.50;;;;;;;;;;5106137;27;41556;-68
2024/01/31 04:33:42;;;;;;;1.63;0.75;;;;;;;;;;5098916;28;41374;-68
2024/01/31 04:36:10;;;;;;;1.15;0.43;;;;;;;;;;5109740;27;41483;-68
2024/01/31 04:38:40;;;;;;;1.13;0.40;;;;;;;;;;5109448;27;42579;-68
2024/01/31 04:41:08;;;;;;;1.02;0.57;;;;;;;;;;5109453;27;41711;-68
2024/01/31 04:43:36;;;;;;;0.73;0.43;;;;;;;;;;5096092;28;42186;-68
2024/01/31 04:46:04;;;;;;;1.10;0.60;;;;;;;;;;5096281;27;40754;-68
2024/01/31 04:48:32;;;;;;;2.25;0.57;;;;;;;;;;5093461;27;42286;-68
2024/01/31 04:51:02;;;;;;;0.93;0.40;;;;;;;;;;5109954;27;42231;-68
2024/01/31 04:53:30;;;;;;;2.58;0.60;;;;;;;;;;5108856;27;40597;-68
2024/01/31 04:55:59;;;;;;;1.55;0.75;;;;;;;;;;5109713;27;41245;-68
2024/01/31 04:58:27;;;;;;;1.13;0.50;;;;;;;;;;5108272;27;41992;-68
2024/01/31 05:00:55;;;;;;;2.08;0.70;;;;;;;;;;5109808;27;40305;-68
2024/01/31 05:03:23;;;;;;;3.17;0.80;;;;;;;;;;5109147;27;42195;-68
2024/01/31 05:05:51;;;;;;;2.33;0.60;;;;;;;;;;5095333;27;40492;-68
2024/01/31 05:08:19;;;;;;;1.00;0.45;;;;;;;;;;5101070;27;41630;-68
2024/01/31 05:10:47;;;;;;;0.50;0.32;;;;;;;;;;5093331;27;42284;-68
2024/01/31 05:13:16;;;;;;;1.08;0.45;;;;;;;;;;5098544;27;41265;-68
2024/01/31 05:15:44;;;;;;;1.67;0.60;;;;;;;;;;5101473;27;41294;-68
2024/01/31 05:18:12;;;;;;;0.73;0.50;;;;;;;;;;5109298;27;43133;-68
2024/01/31 05:20:41;;;;;;;1.42;0.80;;;;;;;;;;5107720;27;40587;-68
2024/01/31 05:23:09;;;;;;;1.00;0.60;;;;;;;;;;5105626;27;41531;-67
2024/01/31 05:25:36;;;;;;;1.08;0.70;;;;;;;;;;5093592;28;40852;-68
2024/01/31 05:28:04;;;;;;;1.35;0.95;;;;;;;;;;5107826;27;41684;-68
2024/01/31 05:30:34;;;;;;;2.15;0.85;;;;;;;;;;5108842;27;42051;-69
2024/01/31 05:33:04;;;;;;;0.95;0.40;;;;;;;;;;5107325;27;40189;-68
2024/01/31 05:35:35;;;;;;;1.42;0.70;;;;;;;;;;5108058;27;41877;-69
2024/01/31 05:38:04;;;;;;;1.30;0.50;;;;;;;;;;5108095;27;41712;-68
2024/01/31 05:40:32;;;;;;;1.90;0.65;;;;;;;;;;5107772;27;39818;-68
2024/01/31 05:43:00;;;;;;;1.73;0.70;;;;;;;;;;5108376;27;42239;-68
2024/01/31 05:45:28;;;;;;;1.70;0.60;;;;;;;;;;5102193;27;42703;-68
2024/01/31 05:47:57;;;;;;;1.42;0.70;;;;;;;;;;5100768;28;41176;-68
2024/01/31 05:50:25;;;;;;;0.80;0.40;;;;;;;;;;5107962;27;42794;-68
2024/01/31 05:52:53;;;;;;;1.30;0.47;;;;;;;;;;5100239;27;40401;-68
2024/01/31 05:55:21;;;;;;;1.67;0.75;;;;;;;;;;5087538;28;42634;-68
2024/01/31 05:57:49;;;;;;;2.00;0.63;;;;;;;;;;5094005;27;43128;-68
2024/01/31 06:00:17;;;;;;;2.38;0.63;;;;;;;;;;5108349;27;40197;-68
2024/01/31 06:02:45;;;;;;;1.63;0.60;;;;;;;;;;5091064;27;42335;-68
2024/01/31 06:05:17;;;;;;;1.23;0.50;;;;;;;;;;5102105;28;41829;-67
2024/01/31 06:07:46;;;;;;;2.53;0.60;;;;;;;;;;5099564;27;41160;-68
2024/01/31 06:10:14;;;;;;;3.03;0.60;;;;;;;;;;5095349;28;41640;-68
2024/01/31 06:12:42;;;;;;;1.75;0.57;;;;;;;;;;5097022;27;41341;-68
2024/01/31 06:15:10;;;;;;;1.83;0.55;;;;;;;;;;5097995;27;41067;-68
2024/01/31 06:17:39;;;;;;;0.95;0.60;;;;;;;;;;5094042;27;42144;-68
2024/01/31 06:20:07;;;;;;;1.10;0.50;;;;;;;;;;5094665;28;40418;-68
2024/01/31 06:22:37;;;;;;;1.85;0.68;;;;;;;;;;5091849;28;41810;-68
2024/01/31 06:25:05;;;;;;;1.15;0.40;;;;;;;;;;5093442;27;42771;-68
2024/01/31 06:27:33;;;;;;;0.93;0.40;;;;;;;;;;5095400;27;41751;-68
2024/01/31 06:30:01;;;;;;;1.60;0.60;;;;;;;;;;5095676;27;41684;-68
2024/01/31 06:32:32;;;;;;;1.02;0.40;;;;;;;;;;5097649;27;40083;-68
2024/01/31 06:35:00;;;;;;;1.52;0.50;;;;;;;;;;5093695;27;41638;-68
2024/01/31 06:37:28;;;;;;;1.27;0.43;;;;;;;;;;5097104;28;41776;-68
2024/01/31 06:39:58;;;;;;;0.93;0.60;;;;;;;;;;5107802;27;40974;-68
2024/01/31 06:42:26;;;;;;;2.78;0.73;;;;;;;;;;5100958;27;41651;-68
2024/01/31 06:44:54;;;;;;;1.70;0.50;;;;;;;;;;5098946;28;41952;-68
2024/01/31 06:47:22;;;;;;;1.58;0.70;;;;;;;;;;5095853;28;39939;-68
2024/01/31 06:49:49;;;;;;;1.42;0.60;;;;;;;;;;5107433;27;42706;-68
2024/01/31 06:52:20;;;;;;;0.93;0.57;;;;;;;;;;5106763;27;41942;-68
2024/01/31 06:54:48;;;;;;;1.35;0.60;;;;;;;;;;5107367;27;41902;-68
2024/01/31 06:57:18;;;;;;;1.88;0.55;;;;;;;;;;5104596;27;42247;-68
2024/01/31 06:59:46;;;;;;;1.45;0.60;;;;;;;;;;5095447;28;40908;-68
2024/01/31 07:02:14;;;;;;;2.00;0.88;;;;;;;;;;5103122;27;41794;-66
2024/01/31 07:04:42;;;;;;;2.50;0.73;;;;;;;;;;5107222;27;42217;-62
2024/01/31 07:07:10;;;;;;;4.32;0.50;;;;;;;;;;5094406;27;40969;-66
2024/01/31 07:09:38;;;;;;;7.20;0.98;;;;;;;;;;5095449;28;42211;-67
2024/01/31 07:12:06;;;;;;;2.13;0.50;;;;;;;;;;5107016;27;41987;-66
2024/01/31 07:14:35;;;;;;;2.92;0.47;;;;;;;;;;5101889;27;41828;-66
2024/01/31 07:17:03;;;;;;;3.30;0.70;;;;;;;;;;5091702;27;42339;-66
2024/01/31 07:19:32;;;;;;;1.10;0.65;;;;;;;;;;5106450;27;40245;-64
2024/01/31 07:22:00;;;;;;;2.28;0.70;;;;;;;;;;5107062;27;42681;-65
2024/01/31 07:24:28;;;;;;;3.28;1.02;;;;;;;;;;5100048;27;41840;-65
2024/01/31 07:26:57;;;;;;;1.88;0.60;;;;;;;;;;5101506;27;41312;-65
2024/01/31 07:29:25;;;;;;;1.02;0.68;;;;;;;;;;5096378;27;41567;-62
2024/01/31 07:31:54;;;;;;;1.95;0.70;;;;;;;;;;5101920;27;41705;-63
2024/01/31 07:34:22;;;;;;;2.70;0.55;;;;;;;;;;5099373;27;40389;-63
2024/01/31 07:36:51;;;;;;;4.93;0.55;;;;;;;;;;5106404;27;41995;-63
2024/01/31 07:39:19;;;;;;;2.40;0.70;;;;;;;;;;5106390;27;39900;-63
2024/01/31 07:41:47;;;;;;;5.22;0.60;;;;;;;;;;5090604;27;41549;-62
2024/01/31 07:44:15;;;;;;;3.40;0.60;;;;;;;;;;5089284;27;42002;-63
2024/01/31 07:46:43;;;;;;;2.15;0.70;;;;;;;;;;5090539;27;40200;-63
2024/01/31 07:49:12;;;;;;;1.10;0.65;;;;;;;;;;5104556;27;41229;-63
2024/01/31 07:51:43;;;;;;;1.60;0.63;;;;;;;;;;5093832;27;41584;-63
2024/01/31 07:54:11;;;;;;;6.53;0.80;;;;;;;;;;5104216;27;40961;-67
2024/01/31 07:56:39;;;;;;;5.93;1.55;;;;;;;;;;5101549;27;40968;-64
2024/01/31 07:59:07;;;;;;;6.10;0.60;;;;;;;;;;5100405;27;39704;-68
2024/01/31 08:01:35;;;;;;;8.35;1.27;;;;;;;;;;5094286;27;42225;-69
2024/01/31 08:04:04;;;;;;;2.17;0.77;;;;;;;;;;5094919;27;43069;-69
2024/01/31 08:06:35;;;;;;;4.47;0.90;;;;;;;;;;5102937;27;41203;-68
2024/01/31 08:09:04;;;;;;;9.13;0.90;;;;;;;;;;5088960;28;40219;-72
2024/01/31 08:11:46;;;;;;;2.80;0.98;;;;;;;;;;5094575;28;41678;-65
2024/01/31 08:14:14;;;;;;;4.65;1.08;;;;;;;;;;5102001;28;40054;-65
2024/01/31 08:16:41;;;;;;;4.57;0.90;;;;;;;;;;5109258;27;42388;-66
2024/01/31 08:19:10;;;;;;;4.65;1.13;;;;;;;;;;5101830;27;41378;-65
2024/01/31 08:21:39;;;;;;;8.40;1.10;;;;;;;;;;5093192;28;42229;-65
2024/01/31 08:24:07;;;;;;;1.63;0.65;;;;;;;;;;5102238;27;43143;-65
2024/01/31 08:26:35;;;;;;;9.80;1.17;;;;;;;;;;5110579;27;41310;-67
2024/01/31 08:29:04;;;;;;;6.00;1.20;;;;;;;;;;5104081;27;42260;-65
2024/01/31 08:31:46;;;;;;;6.18;1.30;;;;;;;;;;5098212;27;41826;-66
2024/01/31 08:34:14;;;;;;;2.55;1.10;;;;;;;;;;5101887;27;40919;-65
2024/01/31 08:36:44;;;;;;;4.28;1.25;;;;;;;;;;5101020;27;41616;-65
2024/01/31 08:39:12;;;;;;;4.35;0.95;;;;;;;;;;5100919;27;41888;-64
2024/01/31 08:41:40;;;;;;;3.03;0.70;;;;;;;;;;5108329;27;41474;-65
2024/01/31 08:44:09;;;;;;;3.80;0.98;;;;;;;;;;5107520;27;41972;-66
2024/01/31 08:46:37;;;;;;;2.90;0.98;;;;;;;;;;5093246;27;39871;-66
2024/01/31 08:49:25;;;;;;;2.00;0.70;;;;;;;;;;5101116;28;41539;-66
2024/01/31 08:51:54;;;;;;;2.65;0.60;;;;;;;;;;5097861;28;41910;-67
2024/01/31 08:54:22;;;;;;;3.58;1.10;;;;;;;;;;5103359;27;40034;-68
2024/01/31 08:56:50;;;;;;;3.58;1.00;;;;;;;;;;5107819;27;42440;-66
2024/01/31 08:59:18;;;;;;;5.47;1.30;;;;;;;;;;5100756;27;41542;-67
2024/01/31 09:01:46;;;;;;;7.32;0.90;;;;;;;;;;5109486;27;40047;-68
2024/01/31 09:04:14;;;;;;;6.35;0.90;;;;;;;;;;5106776;27;41669;-67
2024/01/31 09:06:44;;;;;;;5.00;0.90;;;;;;;;;;5099357;27;40491;-66
2024/01/31 09:09:13;;;;;;;6.13;1.10;;;;;;;;;;5095531;27;41510;-66
2024/01/31 09:11:41;;;;;;;4.78;0.68;;;;;;;;;;5101261;27;42650;-66
2024/01/31 09:14:09;;;;;;;4.10;0.93;;;;;;;;;;5104085;27;40221;-67
2024/01/31 09:16:37;;;;;;;1.38;0.75;;;;;;;;;;5103981;27;42632;-66
2024/01/31 09:19:05;;;;;;;3.65;0.80;;;;;;;;;;5093548;27;41704;-69
2024/01/31 09:21:35;;;;;;;3.55;0.88;;;;;;;;;;5095328;27;40828;-68
2024/01/31 09:24:03;;;;;;;2.00;0.88;;;;;;;;;;5108646;27;42705;-67
2024/01/31 09:26:32;;;;;;;1.23;0.60;;;;;;;;;;5107911;27;39872;-67
2024/01/31 09:29:00;;;;;;;1.45;1.00;;;;;;;;;;5108139;27;42534;-68
2024/01/31 09:31:28;;;;;;;5.20;0.80;;;;;;;;;;5102949;27;41745;-66
2024/01/31 09:33:56;;;;;;;1.52;0.82;;;;;;;;;;5107486;27;40233;-66
2024/01/31 09:36:25;;;;;;;1.95;0.80;;;;;;;;;;5108383;27;41791;-67
2024/01/31 09:38:53;;;;;;;2.10;0.60;;;;;;;;;;5107965;27;42124;-67
2024/01/31 09:41:21;;;;;;;2.72;0.52;;;;;;;;;;5106163;27;42053;-66
2024/01/31 09:43:53;;;;;;;2.47;1.15;;;;;;;;;;5106982;27;41594;-68
2024/01/31 09:46:21;;;;;;;2.08;0.73;;;;;;;;;;5093450;27;42196;-67
2024/01/31 09:48:49;;;;;;;3.05;0.93;;;;;;;;;;5107730;27;41705;-68
2024/01/31 09:51:17;;;;;;;1.13;0.77;;;;;;;;;;5107729;27;41803;-67
2024/01/31 09:53:45;;;;;;;1.48;0.75;;;;;;;;;;5108025;27;40628;-68
2024/01/31 09:56:14;;;;;;;2.45;0.68;;;;;;;;;;5109200;27;42173;-67
2024/01/31 09:58:41;;;;;;;3.28;1.02;;;;;;;;;;5106036;28;41769;-73
2024/01/31 10:01:11;;;;;;;13.13;0.90;;;;;;;;;;5108210;27;41409;-70
2024/01/31 10:03:51;;;;;;;5.20;0.70;;;;;;;;;;5108224;27;42108;-73
2024/01/31 10:06:20;;;;;;;2.92;1.10;;;;;;;;;;5108972;27;43140;-73
2024/01/31 10:08:48;;;;;;;2.95;0.93;;;;;;;;;;5105074;27;40281;-65
2024/01/31 10:11:16;;;;;;;1.83;0.77;;;;;;;;;;5106868;27;43065;-66
2024/01/31 10:13:44;;;;;;;2.45;0.93;;;;;;;;;;5107340;27;39875;-65
2024/01/31 10:16:16;;;;;;;1.58;0.70;;;;;;;;;;5106301;27;41549;-65
2024/01/31 10:18:44;;;;;;;2.97;0.90;;;;;;;;;;5107638;27;43000;-65
2024/01/31 10:21:12;;;;;;;4.20;1.10;;;;;;;;;;5104561;27;40328;-65
2024/01/31 10:23:40;;;;;;;4.57;1.25;;;;;;;;;;5107382;27;41414;-65
2024/01/31 10:26:08;;;;;;;1.85;0.90;;;;;;;;;;5106425;27;42067;-64
2024/01/31 10:28:39;;;;;;;1.42;0.90;;;;;;;;;;5108655;27;39804;-64
2024/01/31 10:31:12;;;;;;;3.58;0.90;;;;;;;;;;5106195;27;42598;-66
2024/01/31 10:33:41;;;;;;;3.63;1.25;;;;;;;;;;5107754;27;40554;-65
2024/01/31 10:36:10;;;;;;;4.05;0.55;;;;;;;;;;5106497;27;41299;-65
2024/01/31 10:38:57;;;;;;;1.58;0.82;;;;;;;;;;5108285;27;43374;-66
2024/01/31 10:41:26;;;;;;;1.65;1.08;;;;;;;;;;5106594;27;39811;-66
2024/01/31 10:43:54;;;;;;;3.28;1.10;;;;;;;;;;5106593;27;41038;-64
2024/01/31 10:46:22;;;;;;;1.45;1.00;;;;;;;;;;5092552;27;41703;-63
2024/01/31 10:48:51;;;;;;;2.55;0.95;;;;;;;;;;5092183;27;40386;-64
2024/01/31 10:51:19;;;;;;;7.25;1.23;;;;;;;;;;5099952;27;42503;-63
2024/01/31 10:53:49;;;;;;;1.90;0.88;;;;;;;;;;5107051;27;41432;-64
2024/01/31 10:56:17;;;;;;;3.17;1.60;;;;;;;;;;5102847;27;42192;-63
2024/01/31 10:58:45;;;;;;;2.10;1.15;;;;;;;;;;5103165;27;42155;-64
2024/01/31 11:01:14;;;;;;;7.70;1.08;;;;;;;;;;5106544;27;42861;-63
2024/01/31 11:03:43;;;;;;;1.80;1.15;;;;;;;;;;5106965;27;41767;-63
2024/01/31 11:06:14;;;;;;;4.30;1.20;;;;;;;;;;5095216;28;20329;-63
2024/01/31 11:08:42;;;;;;;3.33;1.10;;;;;;;;;;5106907;27;40463;-63
2024/01/31 11:11:10;;;;;;;1.70;1.13;;;;;;;;;;5098764;27;42700;-63
2024/01/31 11:13:38;;;;;;;3.40;1.00;;;;;;;;;;5104143;27;42731;-64
2024/01/31 11:16:06;;;;;;;2.72;1.00;;;;;;;;;;5101801;27;42640;-63
2024/01/31 11:18:35;;;;;;;2.38;1.25;;;;;;;;;;5100051;27;42711;-64
2024/01/31 11:21:06;;;;;;;5.03;1.58;;;;;;;;;;5099828;27;39995;-64
2024/01/31 11:23:36;;;;;;;2.95;1.05;;;;;;;;;;5094004;27;41316;-62
2024/01/31 11:26:04;;;;;;;4.53;0.88;;;;;;;;;;5101452;28;42158;-63
2024/01/31 11:28:32;;;;;;;2.08;1.02;;;;;;;;;;5095977;27;40109;-63
2024/01/31 11:31:03;;;;;;;3.35;1.20;;;;;;;;;;5106873;27;42246;-69
2024/01/31 11:33:31;;;;;;;2.63;1.33;;;;;;;;;;5106814;27;42203;-65
2024/01/31 11:35:59;;;;;;;2.95;1.00;;;;;;;;;;5107316;27;40835;-64
2024/01/31 11:38:27;;;;;;;2.75;0.98;;;;;;;;;;5105131;28;42018;-64
2024/01/31 11:40:57;;;;;;;1.75;1.00;;;;;;;;;;5105997;27;40236;-64
2024/01/31 11:43:25;;;;;;;2.42;1.40;;;;;;;;;;5092367;27;42659;-65
2024/01/31 11:45:53;;;;;;;1.58;0.95;;;;;;;;;;5095867;27;42022;-65
2024/01/31 11:48:21;;;;;;;2.70;1.00;;;;;;;;;;5101844;27;40164;-64
2024/01/31 11:50:49;;;;;;;3.45;1.27;;;;;;;;;;5106569;27;41220;-63
2024/01/31 11:53:17;;;;;;;4.10;2.70;;;;;;;;;;5105975;27;41763;-70
2024/01/31 11:55:46;;;;;;;3.58;0.85;;;;;;;;;;5096285;27;40240;-65
2024/01/31 11:58:15;;;;;;;3.63;1.17;;;;;;;;;;5106318;27;41993;-64
2024/01/31 12:00:43;;;;;;;4.55;2.90;;;;;;;;;;5105418;27;40286;-65
2024/01/31 12:03:11;;;;;;;2.90;1.70;;;;;;;;;;5106197;27;41446;-65
2024/01/31 12:05:39;;;;;;;4.70;1.20;;;;;;;;;;5105029;27;41506;-65
2024/01/31 12:08:07;;;;;;;3.45;1.85;;;;;;;;;;5105528;27;40883;-65
2024/01/31 12:10:35;;;;;;;6.22;2.92;;;;;;;;;;5105722;27;41074;-65
2024/01/31 12:13:04;;;;;;;3.10;2.50;;;;;;;;;;5105660;27;42794;-65
2024/01/31 12:15:34;;;;;;;4.55;2.72;;;;;;;;;;5105682;27;41207;-65
2024/01/31 12:18:02;;;;;;;4.25;2.60;;;;;;;;;;5105232;27;42150;-65
2024/01/31 12:20:31;;;;;;;6.68;3.83;;;;;;;;;;5098470;27;32546;-64
2024/01/31 12:22:59;;;;;;;6.57;3.00;;;;;;;;;;5105426;27;41078;-65
2024/01/31 12:25:27;;;;;;;2.83;1.20;;;;;;;;;;5096164;28;43646;-65
2024/01/31 12:27:55;;;;;;;4.05;2.83;;;;;;;;;;5106390;27;40298;-65
2024/01/31 12:30:23;;;;;;;5.00;2.58;;;;;;;;;;5105219;27;41794;-65
2024/01/31 12:32:52;;;;;;;2.15;1.58;;;;;;;;;;5106056;27;42768;-65
2024/01/31 12:35:22;;;;;;;4.38;2.85;;;;;;;;;;5103618;27;39952;-65
2024/01/31 12:37:50;;;;;;;5.22;3.63;;;;;;;;;;5098988;28;42690;-65
2024/01/31 12:40:18;;;;;;;4.70;2.97;;;;;;;;;;5105740;27;42165;-64
2024/01/31 12:42:46;;;;;;;4.47;3.33;;;;;;;;;;5105602;27;40947;-65
2024/01/31 12:45:15;;;;;;;5.70;2.70;;;;;;;;;;5096998;27;43072;-65
2024/01/31 12:47:43;;;;;;;4.28;3.00;;;;;;;;;;5106619;27;40244;-65
2024/01/31 12:50:15;;;;;;;2.70;1.92;;;;;;;;;;5106969;27;41557;-64
2024/01/31 12:52:43;;;;;;;5.40;2.20;;;;;;;;;;5109139;27;43052;-65
2024/01/31 12:55:11;;;;;;;5.78;3.25;;;;;;;;;;5109758;27;39971;-64
2024/01/31 12:57:39;;;;;;;5.72;4.25;;;;;;;;;;5087798;27;42632;-65
2024/01/31 13:00:08;;;;;;;3.83;2.55;;;;;;;;;;5099914;28;42248;-64
2024/01/31 13:02:38;;;;;;;5.57;3.58;;;;;;;;;;5109036;27;40915;-65
2024/01/31 13:05:07;;;;;;;6.65;4.82;;;;;;;;;;5108462;27;41719;-66
2024/01/31 13:07:36;;;;;;;8.93;3.85;;;;;;;;;;5109463;27;41252;-64
2024/01/31 13:10:05;;;;;;;5.28;2.60;;;;;;;;;;5109314;27;41679;-67
2024/01/31 13:12:33;;;;;;;5.47;3.97;;;;;;;;;;5108134;27;42855;-65
2024/01/31 13:15:01;;;;;;;5.03;3.90;;;;;;;;;;5108554;27;40189;-66
2024/01/31 13:17:29;;;;;;;4.68;2.75;;;;;;;;;;5103060;27;42647;-66
2024/01/31 13:19:57;;;;;;;9.88;3.85;;;;;;;;;;5095005;27;42281;-65
2024/01/31 13:22:25;;;;;;;4.22;3.17;;;;;;;;;;5096093;27;40270;-65
2024/01/31 13:24:55;;;;;;;3.85;3.15;;;;;;;;;;5090021;27;42656;-65
2024/01/31 13:27:22;;;;;;;7.10;4.28;;;;;;;;;;5089571;28;40253;-68
2024/01/31 13:29:50;;;;;;;4.32;3.03;;;;;;;;;;5107190;27;42203;-68
2024/01/31 13:32:19;;;;;;;7.50;3.92;;;;;;;;;;5108191;27;42146;-68
2024/01/31 13:34:47;;;;;;;14.95;3.95;;;;;;;;;;5108733;27;40455;-67
2024/01/31 13:37:15;;;;;;;7.32;4.85;;;;;;;;;;5108913;27;41188;-68
2024/01/31 13:39:43;;;;;;;4.97;4.35;;;;;;;;;;5106758;27;42224;-68
2024/01/31 13:42:12;;;;;;;5.75;5.13;;;;;;;;;;5108890;27;41288;-68
2024/01/31 13:44:41;;;;;;;6.10;3.97;;;;;;;;;;5107712;27;42334;-68
2024/01/31 13:47:09;;;;;;;8.93;3.50;;;;;;;;;;5107849;27;40556;-68
2024/01/31 13:49:37;;;;;;;10.25;8.77;;;;;;;;;;5108287;27;41753;-68
2024/01/31 13:52:05;;;;;;;5.20;4.40;;;;;;;;;;5107597;27;42095;-68
2024/01/31 13:54:33;;;;;;;7.85;5.38;;;;;;;;;;5107909;27;41213;-68
2024/01/31 13:57:02;;;;;;;7.28;6.20;;;;;;;;;;5107744;27;42574;-68
2024/01/31 13:59:31;;;;;;;9.45;6.55;;;;;;;;;;5101316;27;42292;-68
2024/01/31 14:02:02;;;;;;;8.40;7.05;;;;;;;;;;5087289;27;41069;-68
2024/01/31 14:04:30;;;;;;;5.20;4.43;;;;;;;;;;5094550;28;39900;-68
2024/01/31 14:06:58;;;;;;;5.90;3.60;;;;;;;;;;5107721;27;42056;-68
2024/01/31 14:09:26;;;;;;;8.45;7.03;;;;;;;;;;5107723;27;39995;-68
2024/01/31 14:11:54;;;;;;;5.28;3.88;;;;;;;;;;5108505;27;41611;-65
2024/01/31 14:14:22;;;;;;;5.20;3.42;;;;;;;;;;5107667;27;41009;-65
2024/01/31 14:16:52;;;;;;;3.92;3.38;;;;;;;;;;5107867;27;41569;-66
2024/01/31 14:19:20;;;;;;;4.53;3.90;;;;;;;;;;5107444;27;41517;-65
2024/01/31 14:21:48;;;;;;;5.57;4.13;;;;;;;;;;5107942;27;41040;-65
2024/01/31 14:24:21;;;;;;;5.53;3.90;;;;;;;;;;5107485;27;41885;-66
2024/01/31 14:26:56;;;;;;;6.40;4.28;;;;;;;;;;5108545;27;41995;-65
2024/01/31 14:29:24;;;;;;;4.47;3.38;;;;;;;;;;5107072;27;40124;-66
2024/01/31 14:31:53;;;;;;;5.38;4.13;;;;;;;;;;5107777;27;42073;-69
2024/01/31 14:34:28;;;;;;;7.28;4.18;;;;;;;;;;5106889;27;40590;-65
2024/01/31 14:36:59;;;;;;;5.45;3.67;;;;;;;;;;5107305;27;41180;-64
2024/01/31 14:39:27;;;;;;;5.07;4.22;;;;;;;;;;5108145;27;42867;-65
2024/01/31 14:41:55;;;;;;;6.15;4.88;;;;;;;;;;5106411;27;40050;-66
2024/01/31 14:44:24;;;;;;;9.30;2.42;;;;;;;;;;5107416;27;41143;-66
2024/01/31 14:46:53;;;;;;;4.60;2.33;;;;;;;;;;5104187;27;43153;-66
2024/01/31 14:49:22;;;;;;;4.28;3.25;;;;;;;;;;5107155;27;40873;-66
2024/01/31 14:51:50;;;;;;;5.20;4.10;;;;;;;;;;5107968;27;41551;-66